createdAt,value
2019-01-30T00:00:40.911Z,81.08
2019-01-30T00:03:11.839Z,81.14
2019-01-30T00:05:41.428Z,80.67
2019-01-30T00:08:11.360Z,80.89
2019-01-30T00:10:41.271Z,80.45
2019-01-30T00:13:12.843Z,80.42
2019-01-30T00:15:42.633Z,80.42
2019-01-30T00:18:12.651Z,80.72
2019-01-30T00:20:42.403Z,80.24
2019-01-30T00:23:12.076Z,80.24
2019-01-30T00:25:42.395Z,80.65
2019-01-30T00:28:13.736Z,80.96
2019-01-30T00:30:43.256Z,80.58
2019-01-30T00:33:15.381Z,80.58
2019-01-30T00:35:45.640Z,79.96
2019-01-30T00:38:15.659Z,80.38
2019-01-30T00:40:45.333Z,80.62
2019-01-30T00:43:15.390Z,80.62
2019-01-30T00:45:45.638Z,81.05
2019-01-30T00:48:15.423Z,81.05
2019-01-30T00:50:45.132Z,81.14
2019-01-30T00:53:15.096Z,80.95
2019-01-30T00:55:45.342Z,80.98
2019-01-30T00:58:15.018Z,81.27
2019-01-30T01:00:44.864Z,80.84
2019-01-30T01:03:15.194Z,81.23
2019-01-30T01:05:45.283Z,81.23
2019-01-30T01:08:15.109Z,81.23
2019-01-30T01:10:44.845Z,81.23
2019-01-30T01:13:14.758Z,81.38
2019-01-30T01:15:44.524Z,81.58
2019-01-30T01:18:14.485Z,80.85
2019-01-30T01:20:44.302Z,80.80
2019-01-30T01:23:14.082Z,80.75
2019-01-30T01:25:43.814Z,81.44
2019-01-30T01:28:13.444Z,81.36
2019-01-30T01:30:43.637Z,81.11
2019-01-30T01:33:13.369Z,81.11
2019-01-30T01:35:42.896Z,81.17
2019-01-30T01:38:12.586Z,81.73
2019-01-30T01:40:42.357Z,81.73
2019-01-30T01:43:12.508Z,81.26
2019-01-30T01:45:43.271Z,81.26
2019-01-30T01:48:13.230Z,81.66
2019-01-30T01:50:45.153Z,81.66
2019-01-30T01:53:14.865Z,81.04
2019-01-30T01:55:47.551Z,81.21
2019-01-30T01:58:17.242Z,81.40
2019-01-30T02:00:46.975Z,81.44
2019-01-30T02:03:16.694Z,80.96
2019-01-30T02:05:47.734Z,81.49
2019-01-30T02:08:17.473Z,80.68
2019-01-30T02:10:47.205Z,81.01
2019-01-30T02:13:17.577Z,81.01
2019-01-30T02:15:47.281Z,81.30
2019-01-30T02:18:17.087Z,81.30
2019-01-30T02:20:48.361Z,81.23
2019-01-30T02:23:18.669Z,81.17
2019-01-30T02:25:48.675Z,80.92
2019-01-30T02:28:18.912Z,80.92
2019-01-30T02:30:48.575Z,80.75
2019-01-30T02:33:18.766Z,80.87
2019-01-30T02:35:50.913Z,80.87
2019-01-30T02:38:20.616Z,80.60
2019-01-30T02:40:50.378Z,80.60
2019-01-30T02:43:20.547Z,80.19
2019-01-30T02:45:50.280Z,80.19
2019-01-30T02:48:19.897Z,80.15
2019-01-30T02:50:49.466Z,80.08
2019-01-30T02:53:19.350Z,80.08
2019-01-30T02:55:50.300Z,80.12
2019-01-30T02:58:19.832Z,80.08
2019-01-30T03:00:58.840Z,80.45
2019-01-30T03:03:21.408Z,79.51
2019-01-30T03:05:53.388Z,80.31
2019-01-30T03:08:23.242Z,80.17
2019-01-30T03:10:54.010Z,79.97
2019-01-30T03:13:23.847Z,79.57
2019-01-30T03:15:53.381Z,79.54
2019-01-30T03:18:23.330Z,79.39
2019-01-30T03:20:55.064Z,79.39
2019-01-30T03:23:24.695Z,79.67
2019-01-30T03:25:56.023Z,79.26
2019-01-30T03:28:26.277Z,79.24
2019-01-30T03:30:56.066Z,79.24
2019-01-30T03:33:26.099Z,79.64
2019-01-30T03:35:55.867Z,79.64
2019-01-30T03:38:25.697Z,79.43
2019-01-30T03:40:55.551Z,79.76
2019-01-30T03:43:25.758Z,78.73
2019-01-30T03:45:55.415Z,78.73
2019-01-30T03:48:25.031Z,79.47
2019-01-30T03:50:55.069Z,79.68
2019-01-30T03:53:25.023Z,78.52
2019-01-30T03:55:56.994Z,79.08
2019-01-30T03:58:28.061Z,79.08
2019-01-30T04:00:59.908Z,78.73
2019-01-30T04:03:30.948Z,78.71
2019-01-30T04:06:00.790Z,77.82
2019-01-30T04:08:30.679Z,78.30
2019-01-30T04:11:00.398Z,78.30
2019-01-30T04:13:30.005Z,78.68
2019-01-30T04:15:59.806Z,78.39
2019-01-30T04:18:30.438Z,78.39
2019-01-30T04:21:00.258Z,77.86
2019-01-30T04:23:30.162Z,77.89
2019-01-30T04:26:00.787Z,77.42
2019-01-30T04:28:30.601Z,78.06
2019-01-30T04:31:00.443Z,77.68
2019-01-30T04:33:30.157Z,77.90
2019-01-30T04:35:59.763Z,77.90
2019-01-30T04:38:29.656Z,78.07
2019-01-30T04:40:59.845Z,78.07
2019-01-30T04:43:29.630Z,77.78
2019-01-30T04:45:59.234Z,77.62
2019-01-30T04:48:28.749Z,77.67
2019-01-30T04:50:58.449Z,77.67
2019-01-30T04:53:28.283Z,76.80
2019-01-30T04:55:57.819Z,77.46
2019-01-30T04:58:30.530Z,77.46
2019-01-30T05:01:00.380Z,77.39
2019-01-30T05:03:30.635Z,76.94
2019-01-30T05:06:00.281Z,76.94
2019-01-30T05:08:30.048Z,77.43
2019-01-30T05:10:59.702Z,77.63
2019-01-30T05:13:29.668Z,77.50
2019-01-30T05:15:59.404Z,77.36
2019-01-30T05:18:31.071Z,77.60
2019-01-30T05:21:01.131Z,77.60
2019-01-30T05:23:30.899Z,77.61
2019-01-30T05:26:00.864Z,77.05
2019-01-30T05:28:32.219Z,77.51
2019-01-30T05:31:01.763Z,77.51
2019-01-30T05:33:33.664Z,77.46
2019-01-30T05:36:05.307Z,77.33
2019-01-30T05:38:35.087Z,77.50
2019-01-30T05:41:06.058Z,78.10
2019-01-30T05:43:35.989Z,77.70
2019-01-30T05:46:05.692Z,77.44
2019-01-30T05:48:35.772Z,77.44
2019-01-30T05:51:05.282Z,77.60
2019-01-30T05:53:35.269Z,77.67
2019-01-30T05:56:06.775Z,77.15
2019-01-30T05:58:36.337Z,78.00
2019-01-30T06:01:06.476Z,77.39
2019-01-30T06:03:36.118Z,77.44
2019-01-30T06:06:05.681Z,77.71
2019-01-30T06:08:35.158Z,77.71
2019-01-30T06:11:04.866Z,78.46
2019-01-30T06:13:34.462Z,77.22
2019-01-30T06:16:04.345Z,77.57
2019-01-30T06:18:34.518Z,78.39
2019-01-30T06:21:04.197Z,77.85
2019-01-30T06:23:35.110Z,77.78
2019-01-30T06:26:04.982Z,77.71
2019-01-30T06:28:34.870Z,77.63
2019-01-30T06:31:04.504Z,77.87
2019-01-30T06:33:34.157Z,77.81
2019-01-30T06:36:03.870Z,77.50
2019-01-30T06:38:33.626Z,77.50
2019-01-30T06:41:03.562Z,78.34
2019-01-30T06:43:33.406Z,77.79
2019-01-30T06:46:03.156Z,77.94
2019-01-30T06:48:34.209Z,77.29
2019-01-30T06:51:03.940Z,77.61
2019-01-30T06:53:33.451Z,77.42
2019-01-30T06:56:03.272Z,77.42
2019-01-30T06:58:32.805Z,77.86
2019-01-30T07:01:04.196Z,77.46
2019-01-30T07:03:34.699Z,77.46
2019-01-30T07:06:04.751Z,78.11
2019-01-30T07:08:34.844Z,78.42
2019-01-30T07:11:10.755Z,78.42
2019-01-30T07:13:36.488Z,77.93
2019-01-30T07:16:06.086Z,77.53
2019-01-30T07:18:37.000Z,77.37
2019-01-30T07:21:06.541Z,77.37
2019-01-30T07:23:36.288Z,77.92
2019-01-30T07:26:06.471Z,77.92
2019-01-30T07:28:36.016Z,77.75
2019-01-30T07:31:05.831Z,77.87
2019-01-30T07:33:35.673Z,78.44
2019-01-30T07:36:07.056Z,78.00
2019-01-30T07:38:36.540Z,79.20
2019-01-30T07:41:06.594Z,79.87
2019-01-30T07:43:36.114Z,80.20
2019-01-30T07:46:09.750Z,80.78
2019-01-30T07:48:39.387Z,80.97
2019-01-30T07:51:09.038Z,81.80
2019-01-30T07:53:39.174Z,81.80
2019-01-30T07:56:08.926Z,82.43
2019-01-30T07:58:38.990Z,83.50
2019-01-30T08:01:12.309Z,84.33
2019-01-30T08:03:42.231Z,84.10
2019-01-30T08:06:12.493Z,83.61
2019-01-30T08:08:42.149Z,83.61
2019-01-30T08:11:11.694Z,84.82
2019-01-30T08:13:41.410Z,84.30
2019-01-30T08:16:10.992Z,84.27
2019-01-30T08:18:41.718Z,84.40
2019-01-30T08:21:11.345Z,84.48
2019-01-30T08:23:41.440Z,84.10
2019-01-30T08:26:11.097Z,84.57
2019-01-30T08:28:40.922Z,84.04
2019-01-30T08:31:11.722Z,84.32
2019-01-30T08:33:41.458Z,84.07
2019-01-30T08:36:12.294Z,84.07
2019-01-30T08:38:42.854Z,84.48
2019-01-30T08:41:12.395Z,83.64
2019-01-30T08:43:41.903Z,84.61
2019-01-30T08:46:12.746Z,84.28
2019-01-30T08:48:42.269Z,84.44
2019-01-30T08:51:12.562Z,84.44
2019-01-30T08:53:42.247Z,84.85
2019-01-30T08:56:12.025Z,84.22
2019-01-30T08:58:41.685Z,84.22
2019-01-30T09:01:11.480Z,83.10
2019-01-30T09:03:41.216Z,83.47
2019-01-30T09:06:11.421Z,83.47
2019-01-30T09:08:41.248Z,83.36
2019-01-30T09:11:11.181Z,83.38
2019-01-30T09:13:40.942Z,83.38
2019-01-30T09:16:10.991Z,82.98
2019-01-30T09:18:40.452Z,82.38
2019-01-30T09:21:10.028Z,82.37
2019-01-30T09:23:39.580Z,82.37
2019-01-30T09:26:09.424Z,82.28
2019-01-30T09:28:39.624Z,82.28
2019-01-30T09:31:09.316Z,82.26
2019-01-30T09:33:41.387Z,81.95
2019-01-30T09:36:11.176Z,80.96
2019-01-30T09:38:40.934Z,80.85
2019-01-30T09:41:11.787Z,80.85
2019-01-30T09:43:43.399Z,80.15
2019-01-30T09:46:13.133Z,79.72
2019-01-30T09:48:44.310Z,79.52
2019-01-30T09:51:13.781Z,80.11
2019-01-30T09:53:43.837Z,79.91
2019-01-30T09:56:15.503Z,79.31
2019-01-30T09:58:44.640Z,79.31
2019-01-30T10:01:14.253Z,80.25
2019-01-30T10:03:55.141Z,79.34
2019-01-30T10:06:25.248Z,78.74
2019-01-30T10:08:55.202Z,78.74
2019-01-30T10:11:24.956Z,78.76
2019-01-30T10:13:54.709Z,78.76
2019-01-30T10:16:25.151Z,78.73
2019-01-30T10:18:58.613Z,79.79
2019-01-30T10:21:29.288Z,79.83
2019-01-30T10:23:58.955Z,79.13
2019-01-30T10:26:28.506Z,79.13
2019-01-30T10:28:58.160Z,78.57
2019-01-30T10:31:29.761Z,77.96
2019-01-30T10:33:59.264Z,78.19
2019-01-30T10:36:28.960Z,78.54
2019-01-30T10:38:59.001Z,78.54
2019-01-30T10:41:28.476Z,78.90
2019-01-30T10:43:57.950Z,77.81
2019-01-30T10:46:27.554Z,77.93
2019-01-30T10:48:57.597Z,77.74
2019-01-30T10:51:28.384Z,78.90
2019-01-30T10:53:58.276Z,79.00
2019-01-30T10:56:27.837Z,78.71
2019-01-30T10:58:57.299Z,78.71
2019-01-30T11:01:29.129Z,78.71
2019-01-30T11:03:59.308Z,78.49
2019-01-30T11:06:29.109Z,79.01
2019-01-30T11:08:59.148Z,79.01
2019-01-30T11:11:28.582Z,79.44
2019-01-30T11:13:58.349Z,79.59
2019-01-30T11:16:27.889Z,79.53
2019-01-30T11:18:57.552Z,79.76
2019-01-30T11:21:27.048Z,79.78
2019-01-30T11:23:56.615Z,80.52
2019-01-30T11:26:26.310Z,79.94
2019-01-30T11:28:55.826Z,79.02
2019-01-30T11:31:25.385Z,79.10
2019-01-30T11:33:55.034Z,79.54
2019-01-30T11:36:24.584Z,79.40
2019-01-30T11:38:55.016Z,79.65
2019-01-30T11:41:24.496Z,79.65
2019-01-30T11:43:56.694Z,80.13
2019-01-30T11:46:26.474Z,80.13
2019-01-30T11:48:56.741Z,80.17
2019-01-30T11:51:26.404Z,80.44
2019-01-30T11:53:56.021Z,80.75
2019-01-30T11:56:25.676Z,80.64
2019-01-30T11:58:59.525Z,80.64
2019-01-30T12:01:29.358Z,80.11
2019-01-30T12:04:01.893Z,80.00
2019-01-30T12:06:31.905Z,80.00
2019-01-30T12:09:01.447Z,80.35
2019-01-30T12:11:31.093Z,80.68
2019-01-30T12:14:01.312Z,80.34
2019-01-30T12:16:31.323Z,79.40
2019-01-30T12:19:01.210Z,79.56
2019-01-30T12:21:30.962Z,79.31
2019-01-30T12:24:03.676Z,79.61
2019-01-30T12:26:33.540Z,79.61
2019-01-30T12:29:03.110Z,78.82
2019-01-30T12:31:34.377Z,78.82
2019-01-30T12:34:03.929Z,78.29
2019-01-30T12:36:33.616Z,78.29
2019-01-30T12:39:05.278Z,76.39
2019-01-30T12:41:35.851Z,76.39
2019-01-30T12:44:05.677Z,77.88
2019-01-30T12:46:35.213Z,78.33
2019-01-30T12:49:05.351Z,78.14
2019-01-30T12:51:36.302Z,77.74
2019-01-30T12:54:05.821Z,77.64
2019-01-30T12:56:35.290Z,79.37
2019-01-30T12:59:05.156Z,79.03
2019-01-30T13:01:35.970Z,79.60
2019-01-30T13:04:08.445Z,79.59
2019-01-30T13:06:38.755Z,79.32
2019-01-30T13:09:10.627Z,79.71
2019-01-30T13:11:43.822Z,79.71
2019-01-30T13:14:13.618Z,79.41
2019-01-30T13:16:44.387Z,79.41
2019-01-30T13:19:13.885Z,79.00
2019-01-30T13:21:44.218Z,80.20
2019-01-30T13:24:14.063Z,79.86
2019-01-30T13:26:44.146Z,79.86
2019-01-30T13:29:13.733Z,80.12
2019-01-30T13:31:43.371Z,80.91
2019-01-30T13:34:13.017Z,80.19
2019-01-30T13:36:42.665Z,80.19
2019-01-30T13:39:12.749Z,80.52
2019-01-30T13:41:43.695Z,80.67
2019-01-30T13:44:23.801Z,80.85
2019-01-30T13:46:44.773Z,81.20
2019-01-30T13:49:14.981Z,81.64
2019-01-30T13:51:44.593Z,81.48
2019-01-30T13:54:19.855Z,81.69
2019-01-30T13:57:01.836Z,81.44
2019-01-30T13:59:43.315Z,81.11
2019-01-30T14:02:24.136Z,80.59
2019-01-30T14:04:59.373Z,81.04
2019-01-30T14:07:24.280Z,81.37
2019-01-30T14:09:56.430Z,81.37
2019-01-30T14:12:26.127Z,81.50
2019-01-30T14:14:56.092Z,81.77
2019-01-30T14:17:26.050Z,81.77
2019-01-30T14:19:59.184Z,81.47
2019-01-30T14:22:28.919Z,81.28
2019-01-30T14:24:58.517Z,81.33
2019-01-30T14:27:28.492Z,82.34
2019-01-30T14:29:59.655Z,82.34
2019-01-30T14:32:29.480Z,82.13
2019-01-30T14:35:10.151Z,82.55
2019-01-30T14:37:30.384Z,82.07
2019-01-30T14:40:02.974Z,82.21
2019-01-30T14:42:32.660Z,82.71
2019-01-30T14:45:02.272Z,82.24
2019-01-30T14:47:31.911Z,82.62
2019-01-30T14:50:01.644Z,82.62
2019-01-30T14:52:31.246Z,83.00
2019-01-30T14:55:03.450Z,82.99
2019-01-30T14:57:33.067Z,83.11
2019-01-30T15:00:02.988Z,83.23
2019-01-30T15:02:35.679Z,83.77
2019-01-30T15:05:06.461Z,83.71
2019-01-30T15:07:37.829Z,83.42
2019-01-30T15:10:10.103Z,84.29
2019-01-30T15:12:40.104Z,84.29
2019-01-30T15:15:12.513Z,83.72
2019-01-30T15:17:42.120Z,83.75
2019-01-30T15:20:15.394Z,84.22
2019-01-30T15:22:51.267Z,84.08
2019-01-30T15:25:21.927Z,84.08
2019-01-30T15:27:51.959Z,84.28
2019-01-30T15:30:32.016Z,84.03
2019-01-30T15:33:03.401Z,84.03
2019-01-30T15:35:34.045Z,84.20
2019-01-30T15:38:05.760Z,84.37
2019-01-30T15:40:37.148Z,84.02
2019-01-30T15:43:08.322Z,84.02
2019-01-30T15:45:38.019Z,83.68
2019-01-30T15:48:08.206Z,83.85
2019-01-30T15:50:38.669Z,84.30
2019-01-30T15:53:11.869Z,84.23
2019-01-30T15:55:42.154Z,84.23
2019-01-30T15:58:12.886Z,85.34
2019-01-30T16:00:49.476Z,85.10
2019-01-30T16:03:20.590Z,85.26
2019-01-30T16:05:50.715Z,85.26
2019-01-30T16:08:21.146Z,85.60
2019-01-30T16:10:50.840Z,85.60
2019-01-30T16:13:20.407Z,85.52
2019-01-30T16:15:56.137Z,84.53
2019-01-30T16:18:26.431Z,84.12
2019-01-30T16:20:57.254Z,83.57
2019-01-30T16:23:28.597Z,84.01
2019-01-30T16:25:59.592Z,84.02
2019-01-30T16:28:29.557Z,83.88
2019-01-30T16:30:59.149Z,83.88
2019-01-30T16:33:30.965Z,84.25
2019-01-30T16:36:03.817Z,85.37
2019-01-30T16:38:33.672Z,84.42
2019-01-30T16:41:06.308Z,84.57
2019-01-30T16:43:37.899Z,84.38
2019-01-30T16:46:07.551Z,84.08
2019-01-30T16:48:37.172Z,84.30
2019-01-30T16:51:06.850Z,84.30
2019-01-30T16:53:36.666Z,84.29
2019-01-30T16:56:06.498Z,84.33
2019-01-30T16:58:36.947Z,84.58
2019-01-30T17:01:06.637Z,84.58
2019-01-30T17:03:38.087Z,84.67
2019-01-30T17:06:08.183Z,84.25
2019-01-30T17:08:37.759Z,83.87
2019-01-30T17:11:07.498Z,84.66
2019-01-30T17:13:40.386Z,84.66
2019-01-30T17:16:10.017Z,84.92
2019-01-30T17:18:39.773Z,85.19
2019-01-30T17:21:09.363Z,85.19
2019-01-30T17:23:41.075Z,85.37
2019-01-30T17:26:11.179Z,85.81
2019-01-30T17:28:40.851Z,85.40
2019-01-30T17:31:20.027Z,85.40
2019-01-30T17:33:53.098Z,85.34
2019-01-30T17:36:22.869Z,85.51
2019-01-30T17:38:52.444Z,85.81
2019-01-30T17:41:24.882Z,85.81
2019-01-30T17:43:57.700Z,85.21
2019-01-30T17:46:28.070Z,85.21
2019-01-30T17:48:59.007Z,85.12
2019-01-30T17:51:29.450Z,84.95
2019-01-30T17:54:00.830Z,86.00
2019-01-30T17:56:30.707Z,86.14
2019-01-30T17:59:04.291Z,85.77
2019-01-30T18:01:34.171Z,85.51
2019-01-30T18:04:04.250Z,86.06
2019-01-30T18:06:38.829Z,86.06
2019-01-30T18:09:11.755Z,85.71
2019-01-30T18:11:41.502Z,85.58
2019-01-30T18:14:11.304Z,85.81
2019-01-30T18:16:41.351Z,85.98
2019-01-30T18:19:11.108Z,86.25
2019-01-30T18:21:43.665Z,86.25
2019-01-30T18:24:13.701Z,86.58
2019-01-30T18:26:46.714Z,86.33
2019-01-30T18:29:17.306Z,86.33
2019-01-30T18:31:47.670Z,86.09
2019-01-30T18:34:17.475Z,85.99
2019-01-30T18:36:47.246Z,85.99
2019-01-30T18:39:17.134Z,86.42
2019-01-30T18:41:48.212Z,86.45
2019-01-30T18:44:18.384Z,86.21
2019-01-30T18:46:50.893Z,85.63
2019-01-30T18:49:21.264Z,86.32
2019-01-30T18:51:52.121Z,86.20
2019-01-30T18:54:21.888Z,86.49
2019-01-30T18:56:52.368Z,86.49
2019-01-30T18:59:22.068Z,86.51
2019-01-30T19:01:51.683Z,86.22
2019-01-30T19:04:21.429Z,86.44
2019-01-30T19:06:54.668Z,86.44
2019-01-30T19:09:24.426Z,87.20
2019-01-30T19:11:54.435Z,87.20
2019-01-30T19:14:27.466Z,87.12
2019-01-30T19:16:57.108Z,86.76
2019-01-30T19:19:26.684Z,86.56
2019-01-30T19:21:58.220Z,86.77
2019-01-30T19:24:32.146Z,86.80
2019-01-30T19:26:59.281Z,86.39
2019-01-30T19:29:28.871Z,86.39
2019-01-30T19:32:00.847Z,86.84
2019-01-30T19:34:30.828Z,86.84
2019-01-30T19:37:03.623Z,87.19
2019-01-30T19:39:32.299Z,87.53
2019-01-30T19:42:04.959Z,87.53
2019-01-30T19:44:34.913Z,87.28
2019-01-30T19:47:04.797Z,86.87
2019-01-30T19:49:36.350Z,86.87
2019-01-30T19:52:06.200Z,86.85
2019-01-30T19:54:39.341Z,86.91
2019-01-30T19:57:18.355Z,86.24
2019-01-30T19:59:50.013Z,86.68
2019-01-30T20:02:20.694Z,86.39
2019-01-30T20:04:51.367Z,86.39
2019-01-30T20:07:21.136Z,86.61
2019-01-30T20:09:50.713Z,86.61
2019-01-30T20:12:20.234Z,86.00
2019-01-30T20:14:51.143Z,85.99
2019-01-30T20:17:25.553Z,86.44
2019-01-30T20:19:59.487Z,86.44
2019-01-30T20:22:29.509Z,85.92
2019-01-30T20:25:00.817Z,86.60
2019-01-30T20:27:31.688Z,86.60
2019-01-30T20:30:01.528Z,86.27
2019-01-30T20:32:32.378Z,85.89
2019-01-30T20:35:03.168Z,85.89
2019-01-30T20:37:37.765Z,86.18
2019-01-30T20:40:04.611Z,86.08
2019-01-30T20:42:36.006Z,86.08
2019-01-30T20:45:07.817Z,86.05
2019-01-30T20:47:37.356Z,85.69
2019-01-30T20:50:13.048Z,85.69
2019-01-30T20:52:46.472Z,85.96
2019-01-30T20:55:18.783Z,86.34
2019-01-30T20:57:56.620Z,86.21
2019-01-30T21:00:27.360Z,86.23
2019-01-30T21:02:56.950Z,86.23
2019-01-30T21:05:28.721Z,85.88
2019-01-30T21:07:58.684Z,86.56
2019-01-30T21:10:30.541Z,86.05
2019-01-30T21:13:00.381Z,86.19
2019-01-30T21:15:30.252Z,86.33
2019-01-30T21:18:03.301Z,86.27
2019-01-30T21:20:33.481Z,86.46
2019-01-30T21:23:07.088Z,86.36
2019-01-30T21:25:36.899Z,86.46
2019-01-30T21:28:07.349Z,86.72
2019-01-30T21:30:38.216Z,86.92
2019-01-30T21:33:11.873Z,86.99
2019-01-30T21:35:41.552Z,87.50
2019-01-30T21:38:11.330Z,87.50
2019-01-30T21:40:41.391Z,87.34
2019-01-30T21:43:11.117Z,87.14
2019-01-30T21:45:41.435Z,87.09
2019-01-30T21:48:11.149Z,87.09
2019-01-30T21:50:41.025Z,88.16
2019-01-30T21:53:11.145Z,88.19
2019-01-30T21:55:43.012Z,88.19
2019-01-30T21:58:12.976Z,88.48
2019-01-30T22:00:43.103Z,89.50
2019-01-30T22:03:12.932Z,88.13
2019-01-30T22:05:43.977Z,88.13
2019-01-30T22:08:13.798Z,88.91
2019-01-30T22:10:44.411Z,87.95
2019-01-30T22:13:16.874Z,87.74
2019-01-30T22:15:46.846Z,87.56
2019-01-30T22:18:16.822Z,88.13
2019-01-30T22:20:46.758Z,87.92
2019-01-30T22:23:18.319Z,88.59
2019-01-30T22:25:48.652Z,88.31
2019-01-30T22:28:18.506Z,88.18
2019-01-30T22:30:48.258Z,88.08
2019-01-30T22:33:17.823Z,88.08
2019-01-30T22:35:47.761Z,89.22
2019-01-30T22:38:17.750Z,88.62
2019-01-30T22:40:48.133Z,89.97
2019-01-30T22:43:17.944Z,89.57
2019-01-30T22:45:50.451Z,88.51
2019-01-30T22:48:19.550Z,87.59
2019-01-30T22:50:49.178Z,88.11
2019-01-30T22:53:21.517Z,88.11
2019-01-30T22:55:57.766Z,88.38
2019-01-30T22:58:27.968Z,88.38
2019-01-30T23:01:27.884Z,88.35
2019-01-30T23:04:25.025Z,88.59
2019-01-30T23:07:03.389Z,88.59
2019-01-30T23:10:15.459Z,88.81
2019-01-30T23:13:14.762Z,88.98
2019-01-30T23:15:55.982Z,88.93
2019-01-30T23:19:04.687Z,88.67
2019-01-30T23:21:51.136Z,89.13
2019-01-30T23:24:59.036Z,89.18
2019-01-30T23:28:03.599Z,88.92
2019-01-30T23:30:58.233Z,88.92
2019-01-30T23:34:30.541Z,88.27
2019-01-30T23:37:56.869Z,88.27
2019-01-30T23:40:42.286Z,88.57
2019-01-30T23:44:05.482Z,88.81
2019-01-30T23:47:04.040Z,88.57
2019-01-30T23:50:06.261Z,88.78
2019-01-30T23:53:13.037Z,88.78
2019-01-30T23:56:33.225Z,88.77
2019-01-30T23:59:31.108Z,88.67
